sensor_id;sensor_type;location;lat;lon;timestamp;P1;durP1;ratioP1;P2;durP2;ratioP2
21721;SDS011;11023;48.274;7.794;2023-03-01T00:00:39;29.23;;;18.00;;
21721;SDS011;11023;48.274;7.794;2023-03-01T00:03:05;29.75;;;18.25;;
21721;SDS011;11023;48.274;7.794;2023-03-01T00:05:31;28.67;;;17.90;;
21721;SDS011;11023;48.274;7.794;2023-03-01T00:07:57;29.25;;;18.35;;
21721;SDS011;11023;48.274;7.794;2023-03-01T00:10:23;30.10;;;18.52;;
21721;SDS011;11023;48.274;7.794;2023-03-01T00:12:49;28.80;;;18.15;;
21721;SDS011;11023;48.274;7.794;2023-03-01T00:15:15;29.67;;;17.90;;
21721;SDS011;11023;48.274;7.794;2023-03-01T00:17:41;30.05;;;18.15;;
21721;SDS011;11023;48.274;7.794;2023-03-01T00:20:08;30.05;;;18.35;;
21721;SDS011;11023;48.274;7.794;2023-03-01T00:22:35;28.13;;;17.08;;
21721;SDS011;11023;48.274;7.794;2023-03-01T00:25:01;28.30;;;17.90;;
21721;SDS011;11023;48.274;7.794;2023-03-01T00:27:28;30.15;;;17.95;;
21721;SDS011;11023;48.274;7.794;2023-03-01T00:29:53;29.00;;;17.00;;
21721;SDS011;11023;48.274;7.794;2023-03-01T00:32:20;30.70;;;18.35;;
21721;SDS011;11023;48.274;7.794;2023-03-01T00:34:46;30.05;;;16.77;;
21721;SDS011;11023;48.274;7.794;2023-03-01T00:37:19;31.80;;;17.90;;
21721;SDS011;11023;48.274;7.794;2023-03-01T00:39:47;30.08;;;16.92;;
21721;SDS011;11023;48.274;7.794;2023-03-01T00:42:13;26.23;;;17.00;;
21721;SDS011;11023;48.274;7.794;2023-03-01T00:44:39;28.38;;;17.02;;
21721;SDS011;11023;48.274;7.794;2023-03-01T00:47:05;29.85;;;16.45;;
21721;SDS011;11023;48.274;7.794;2023-03-01T00:49:30;30.83;;;18.05;;
21721;SDS011;11023;48.274;7.794;2023-03-01T00:51:56;30.30;;;17.83;;
21721;SDS011;11023;48.274;7.794;2023-03-01T00:54:22;29.70;;;17.75;;
21721;SDS011;11023;48.274;7.794;2023-03-01T00:56:49;28.08;;;17.88;;
21721;SDS011;11023;48.274;7.794;2023-03-01T00:59:15;31.00;;;18.95;;
21721;SDS011;11023;48.274;7.794;2023-03-01T01:01:40;30.73;;;18.92;;
21721;SDS011;11023;48.274;7.794;2023-03-01T01:04:08;30.75;;;18.48;;
21721;SDS011;11023;48.274;7.794;2023-03-01T01:06:37;30.77;;;18.95;;
21721;SDS011;11023;48.274;7.794;2023-03-01T01:09:07;30.38;;;18.25;;
21721;SDS011;11023;48.274;7.794;2023-03-01T01:11:34;28.52;;;18.38;;
21721;SDS011;11023;48.274;7.794;2023-03-01T01:14:01;30.50;;;17.95;;
21721;SDS011;11023;48.274;7.794;2023-03-01T01:16:28;28.90;;;18.00;;
21721;SDS011;11023;48.274;7.794;2023-03-01T01:18:55;29.50;;;16.83;;
21721;SDS011;11023;48.274;7.794;2023-03-01T01:21:22;26.63;;;17.30;;
21721;SDS011;11023;48.274;7.794;2023-03-01T01:23:48;28.17;;;17.65;;
21721;SDS011;11023;48.274;7.794;2023-03-01T01:26:18;26.95;;;16.75;;
21721;SDS011;11023;48.274;7.794;2023-03-01T01:28:46;29.67;;;17.92;;
21721;SDS011;11023;48.274;7.794;2023-03-01T01:31:12;31.73;;;18.27;;
21721;SDS011;11023;48.274;7.794;2023-03-01T01:33:38;27.85;;;17.92;;
21721;SDS011;11023;48.274;7.794;2023-03-01T01:36:05;30.27;;;18.92;;
21721;SDS011;11023;48.274;7.794;2023-03-01T01:38:31;29.90;;;18.73;;
21721;SDS011;11023;48.274;7.794;2023-03-01T01:40:58;32.70;;;19.25;;
21721;SDS011;11023;48.274;7.794;2023-03-01T01:43:26;29.02;;;18.88;;
21721;SDS011;11023;48.274;7.794;2023-03-01T01:46:01;28.25;;;18.85;;
21721;SDS011;11023;48.274;7.794;2023-03-01T01:48:39;32.38;;;18.83;;
21721;SDS011;11023;48.274;7.794;2023-03-01T01:51:31;34.92;;;19.83;;
21721;SDS011;11023;48.274;7.794;2023-03-01T01:54:05;34.35;;;20.25;;
21721;SDS011;11023;48.274;7.794;2023-03-01T01:56:48;34.58;;;20.70;;
21721;SDS011;11023;48.274;7.794;2023-03-01T01:59:18;35.80;;;20.13;;
21721;SDS011;11023;48.274;7.794;2023-03-01T02:01:44;31.73;;;19.98;;
21721;SDS011;11023;48.274;7.794;2023-03-01T02:04:09;32.67;;;19.80;;
21721;SDS011;11023;48.274;7.794;2023-03-01T02:06:37;36.05;;;20.38;;
21721;SDS011;11023;48.274;7.794;2023-03-01T02:09:16;32.33;;;18.80;;
21721;SDS011;11023;48.274;7.794;2023-03-01T02:11:45;34.08;;;20.00;;
21721;SDS011;11023;48.274;7.794;2023-03-01T02:14:12;31.95;;;18.85;;
21721;SDS011;11023;48.274;7.794;2023-03-01T02:16:37;33.33;;;19.88;;
21721;SDS011;11023;48.274;7.794;2023-03-01T02:19:03;30.88;;;18.50;;
21721;SDS011;11023;48.274;7.794;2023-03-01T02:21:49;29.05;;;18.17;;
21721;SDS011;11023;48.274;7.794;2023-03-01T02:24:48;29.30;;;18.23;;
21721;SDS011;11023;48.274;7.794;2023-03-01T02:27:30;30.13;;;18.80;;
21721;SDS011;11023;48.274;7.794;2023-03-01T02:30:03;34.25;;;19.60;;
21721;SDS011;11023;48.274;7.794;2023-03-01T02:32:29;32.28;;;18.20;;
21721;SDS011;11023;48.274;7.794;2023-03-01T02:34:56;30.60;;;19.05;;
21721;SDS011;11023;48.274;7.794;2023-03-01T02:37:22;33.45;;;18.85;;
21721;SDS011;11023;48.274;7.794;2023-03-01T02:39:51;28.38;;;17.83;;
21721;SDS011;11023;48.274;7.794;2023-03-01T02:42:24;30.30;;;19.30;;
21721;SDS011;11023;48.274;7.794;2023-03-01T02:44:56;31.38;;;18.55;;
21721;SDS011;11023;48.274;7.794;2023-03-01T02:47:22;31.15;;;18.88;;
21721;SDS011;11023;48.274;7.794;2023-03-01T02:49:48;29.38;;;18.77;;
21721;SDS011;11023;48.274;7.794;2023-03-01T02:55:22;30.95;;;18.58;;
21721;SDS011;11023;48.274;7.794;2023-03-01T02:57:47;31.45;;;19.45;;
21721;SDS011;11023;48.274;7.794;2023-03-01T03:00:20;32.70;;;19.38;;
21721;SDS011;11023;48.274;7.794;2023-03-01T03:02:53;34.53;;;19.30;;
21721;SDS011;11023;48.274;7.794;2023-03-01T03:05:26;36.97;;;20.05;;
21721;SDS011;11023;48.274;7.794;2023-03-01T03:07:53;29.48;;;18.67;;
21721;SDS011;11023;48.274;7.794;2023-03-01T03:10:24;31.90;;;19.58;;
21721;SDS011;11023;48.274;7.794;2023-03-01T03:12:56;35.67;;;19.90;;
21721;SDS011;11023;48.274;7.794;2023-03-01T03:15:24;34.75;;;19.48;;
21721;SDS011;11023;48.274;7.794;2023-03-01T03:17:51;31.70;;;19.80;;
21721;SDS011;11023;48.274;7.794;2023-03-01T03:20:19;33.80;;;19.45;;
21721;SDS011;11023;48.274;7.794;2023-03-01T03:22:47;33.05;;;19.17;;
21721;SDS011;11023;48.274;7.794;2023-03-01T03:25:14;32.35;;;19.48;;
21721;SDS011;11023;48.274;7.794;2023-03-01T03:27:41;35.03;;;19.70;;
21721;SDS011;11023;48.274;7.794;2023-03-01T03:30:10;31.42;;;19.08;;
21721;SDS011;11023;48.274;7.794;2023-03-01T03:32:42;32.88;;;18.92;;
21721;SDS011;11023;48.274;7.794;2023-03-01T03:35:18;33.05;;;19.70;;
21721;SDS011;11023;48.274;7.794;2023-03-01T03:37:51;29.70;;;18.95;;
21721;SDS011;11023;48.274;7.794;2023-03-01T03:40:27;31.70;;;18.45;;
21721;SDS011;11023;48.274;7.794;2023-03-01T03:42:56;31.30;;;19.30;;
21721;SDS011;11023;48.274;7.794;2023-03-01T03:45:22;31.38;;;19.15;;
21721;SDS011;11023;48.274;7.794;2023-03-01T03:47:47;33.05;;;18.13;;
21721;SDS011;11023;48.274;7.794;2023-03-01T03:50:14;31.77;;;18.48;;
21721;SDS011;11023;48.274;7.794;2023-03-01T03:52:40;29.27;;;17.80;;
21721;SDS011;11023;48.274;7.794;2023-03-01T03:55:07;32.80;;;19.10;;
21721;SDS011;11023;48.274;7.794;2023-03-01T03:57:37;31.33;;;18.90;;
21721;SDS011;11023;48.274;7.794;2023-03-01T04:00:04;31.98;;;19.30;;
21721;SDS011;11023;48.274;7.794;2023-03-01T04:02:38;32.67;;;19.25;;
21721;SDS011;11023;48.274;7.794;2023-03-01T04:05:07;33.25;;;19.25;;
21721;SDS011;11023;48.274;7.794;2023-03-01T04:07:34;31.90;;;19.08;;
21721;SDS011;11023;48.274;7.794;2023-03-01T04:10:01;28.52;;;18.63;;
21721;SDS011;11023;48.274;7.794;2023-03-01T04:12:28;33.38;;;19.70;;
21721;SDS011;11023;48.274;7.794;2023-03-01T04:14:54;31.80;;;18.63;;
21721;SDS011;11023;48.274;7.794;2023-03-01T04:17:19;33.45;;;19.92;;
21721;SDS011;11023;48.274;7.794;2023-03-01T04:19:45;30.80;;;19.30;;
21721;SDS011;11023;48.274;7.794;2023-03-01T04:22:13;31.80;;;18.63;;
21721;SDS011;11023;48.274;7.794;2023-03-01T04:24:42;27.85;;;18.00;;
21721;SDS011;11023;48.274;7.794;2023-03-01T04:27:08;33.13;;;18.45;;
21721;SDS011;11023;48.274;7.794;2023-03-01T04:29:34;29.75;;;18.17;;
21721;SDS011;11023;48.274;7.794;2023-03-01T04:31:59;29.33;;;18.02;;
21721;SDS011;11023;48.274;7.794;2023-03-01T04:34:25;30.85;;;18.13;;
21721;SDS011;11023;48.274;7.794;2023-03-01T04:36:54;28.35;;;18.05;;
21721;SDS011;11023;48.274;7.794;2023-03-01T04:39:19;31.90;;;18.33;;
21721;SDS011;11023;48.274;7.794;2023-03-01T04:41:45;29.70;;;18.58;;
21721;SDS011;11023;48.274;7.794;2023-03-01T04:44:11;29.33;;;17.85;;
21721;SDS011;11023;48.274;7.794;2023-03-01T04:46:37;33.92;;;18.73;;
21721;SDS011;11023;48.274;7.794;2023-03-01T04:49:03;31.55;;;18.83;;
21721;SDS011;11023;48.274;7.794;2023-03-01T04:51:30;32.88;;;18.65;;
21721;SDS011;11023;48.274;7.794;2023-03-01T04:53:57;31.40;;;18.58;;
21721;SDS011;11023;48.274;7.794;2023-03-01T04:56:23;31.10;;;18.50;;
21721;SDS011;11023;48.274;7.794;2023-03-01T04:58:49;29.30;;;18.70;;
21721;SDS011;11023;48.274;7.794;2023-03-01T05:01:17;30.65;;;18.15;;
21721;SDS011;11023;48.274;7.794;2023-03-01T05:03:45;30.95;;;18.58;;
21721;SDS011;11023;48.274;7.794;2023-03-01T05:06:13;28.88;;;18.17;;
21721;SDS011;11023;48.274;7.794;2023-03-01T05:08:40;29.30;;;17.67;;
21721;SDS011;11023;48.274;7.794;2023-03-01T05:11:06;32.13;;;19.13;;
21721;SDS011;11023;48.274;7.794;2023-03-01T05:13:34;30.33;;;18.52;;
21721;SDS011;11023;48.274;7.794;2023-03-01T05:16:01;31.90;;;18.67;;
21721;SDS011;11023;48.274;7.794;2023-03-01T05:18:29;30.00;;;18.25;;
21721;SDS011;11023;48.274;7.794;2023-03-01T05:21:01;29.90;;;18.48;;
21721;SDS011;11023;48.274;7.794;2023-03-01T05:23:29;29.52;;;18.58;;
21721;SDS011;11023;48.274;7.794;2023-03-01T05:25:58;30.92;;;18.15;;
21721;SDS011;11023;48.274;7.794;2023-03-01T05:28:25;29.27;;;17.92;;
21721;SDS011;11023;48.274;7.794;2023-03-01T05:30:51;29.75;;;17.80;;
21721;SDS011;11023;48.274;7.794;2023-03-01T05:33:17;30.65;;;17.52;;
21721;SDS011;11023;48.274;7.794;2023-03-01T05:35:44;33.22;;;17.65;;
21721;SDS011;11023;48.274;7.794;2023-03-01T05:38:11;29.77;;;17.17;;
21721;SDS011;11023;48.274;7.794;2023-03-01T05:40:40;30.30;;;18.23;;
21721;SDS011;11023;48.274;7.794;2023-03-01T05:43:08;28.30;;;17.00;;
21721;SDS011;11023;48.274;7.794;2023-03-01T05:45:35;29.08;;;17.58;;
21721;SDS011;11023;48.274;7.794;2023-03-01T05:48:02;28.70;;;17.20;;
21721;SDS011;11023;48.274;7.794;2023-03-01T05:50:31;29.63;;;17.50;;
21721;SDS011;11023;48.274;7.794;2023-03-01T05:53:00;29.75;;;17.98;;
21721;SDS011;11023;48.274;7.794;2023-03-01T05:55:28;31.83;;;18.77;;
21721;SDS011;11023;48.274;7.794;2023-03-01T05:57:54;29.50;;;18.10;;
21721;SDS011;11023;48.274;7.794;2023-03-01T06:00:20;28.92;;;17.17;;
21721;SDS011;11023;48.274;7.794;2023-03-01T06:02:49;33.33;;;18.65;;
21721;SDS011;11023;48.274;7.794;2023-03-01T06:05:17;32.20;;;17.23;;
21721;SDS011;11023;48.274;7.794;2023-03-01T06:07:43;29.10;;;17.35;;
21721;SDS011;11023;48.274;7.794;2023-03-01T06:10:09;29.88;;;18.50;;
21721;SDS011;11023;48.274;7.794;2023-03-01T06:12:37;29.75;;;18.00;;
21721;SDS011;11023;48.274;7.794;2023-03-01T06:15:03;30.83;;;18.20;;
21721;SDS011;11023;48.274;7.794;2023-03-01T06:17:31;28.92;;;17.42;;
21721;SDS011;11023;48.274;7.794;2023-03-01T06:20:02;30.80;;;17.90;;
21721;SDS011;11023;48.274;7.794;2023-03-01T06:22:33;31.63;;;18.50;;
21721;SDS011;11023;48.274;7.794;2023-03-01T06:24:58;30.67;;;18.42;;
21721;SDS011;11023;48.274;7.794;2023-03-01T06:27:24;31.65;;;18.27;;
21721;SDS011;11023;48.274;7.794;2023-03-01T06:29:49;31.02;;;18.20;;
21721;SDS011;11023;48.274;7.794;2023-03-01T06:32:15;31.23;;;18.50;;
21721;SDS011;11023;48.274;7.794;2023-03-01T06:34:41;29.83;;;18.08;;
21721;SDS011;11023;48.274;7.794;2023-03-01T06:37:07;30.00;;;18.90;;
21721;SDS011;11023;48.274;7.794;2023-03-01T06:39:32;31.33;;;18.50;;
21721;SDS011;11023;48.274;7.794;2023-03-01T06:41:58;32.05;;;19.15;;
21721;SDS011;11023;48.274;7.794;2023-03-01T06:44:25;31.10;;;18.35;;
21721;SDS011;11023;48.274;7.794;2023-03-01T06:46:51;29.45;;;18.90;;
21721;SDS011;11023;48.274;7.794;2023-03-01T06:49:17;28.02;;;18.05;;
21721;SDS011;11023;48.274;7.794;2023-03-01T06:51:43;31.45;;;19.08;;
21721;SDS011;11023;48.274;7.794;2023-03-01T06:54:09;32.20;;;19.20;;
21721;SDS011;11023;48.274;7.794;2023-03-01T06:56:35;31.70;;;18.40;;
21721;SDS011;11023;48.274;7.794;2023-03-01T06:59:01;30.08;;;18.33;;
21721;SDS011;11023;48.274;7.794;2023-03-01T07:01:28;30.60;;;18.38;;
21721;SDS011;11023;48.274;7.794;2023-03-01T07:03:54;29.90;;;19.17;;
21721;SDS011;11023;48.274;7.794;2023-03-01T07:06:20;33.83;;;19.50;;
21721;SDS011;11023;48.274;7.794;2023-03-01T07:08:46;32.35;;;19.15;;
21721;SDS011;11023;48.274;7.794;2023-03-01T07:11:12;30.98;;;19.73;;
21721;SDS011;11023;48.274;7.794;2023-03-01T07:13:38;29.25;;;18.70;;
21721;SDS011;11023;48.274;7.794;2023-03-01T07:16:04;31.70;;;19.05;;
21721;SDS011;11023;48.274;7.794;2023-03-01T07:18:29;32.30;;;18.90;;
21721;SDS011;11023;48.274;7.794;2023-03-01T07:20:55;31.25;;;18.77;;
21721;SDS011;11023;48.274;7.794;2023-03-01T07:23:21;28.52;;;18.45;;
21721;SDS011;11023;48.274;7.794;2023-03-01T07:25:53;34.97;;;19.38;;
21721;SDS011;11023;48.274;7.794;2023-03-01T07:28:20;30.70;;;18.60;;
21721;SDS011;11023;48.274;7.794;2023-03-01T07:30:47;32.80;;;19.92;;
21721;SDS011;11023;48.274;7.794;2023-03-01T07:33:12;30.17;;;18.95;;
21721;SDS011;11023;48.274;7.794;2023-03-01T07:35:38;31.55;;;19.02;;
21721;SDS011;11023;48.274;7.794;2023-03-01T07:38:04;33.15;;;19.65;;
21721;SDS011;11023;48.274;7.794;2023-03-01T07:40:29;30.85;;;19.25;;
21721;SDS011;11023;48.274;7.794;2023-03-01T07:42:58;30.13;;;18.70;;
21721;SDS011;11023;48.274;7.794;2023-03-01T07:45:27;33.08;;;19.35;;
21721;SDS011;11023;48.274;7.794;2023-03-01T07:47:53;29.90;;;19.13;;
21721;SDS011;11023;48.274;7.794;2023-03-01T07:50:19;31.75;;;18.92;;
21721;SDS011;11023;48.274;7.794;2023-03-01T07:52:46;31.33;;;19.92;;
21721;SDS011;11023;48.274;7.794;2023-03-01T07:55:13;32.50;;;19.55;;
21721;SDS011;11023;48.274;7.794;2023-03-01T07:57:39;35.10;;;20.67;;
21721;SDS011;11023;48.274;7.794;2023-03-01T08:00:05;32.58;;;20.90;;
21721;SDS011;11023;48.274;7.794;2023-03-01T08:02:31;34.08;;;20.75;;
21721;SDS011;11023;48.274;7.794;2023-03-01T08:04:57;35.55;;;21.15;;
21721;SDS011;11023;48.274;7.794;2023-03-01T08:07:23;32.72;;;20.23;;
21721;SDS011;11023;48.274;7.794;2023-03-01T08:09:48;31.98;;;20.00;;
21721;SDS011;11023;48.274;7.794;2023-03-01T08:12:14;34.60;;;20.45;;
21721;SDS011;11023;48.274;7.794;2023-03-01T08:14:41;34.35;;;20.38;;
21721;SDS011;11023;48.274;7.794;2023-03-01T08:17:07;35.20;;;21.15;;
21721;SDS011;11023;48.274;7.794;2023-03-01T08:19:33;32.42;;;20.25;;
21721;SDS011;11023;48.274;7.794;2023-03-01T08:21:59;31.92;;;20.83;;
21721;SDS011;11023;48.274;7.794;2023-03-01T08:24:26;32.50;;;21.25;;
21721;SDS011;11023;48.274;7.794;2023-03-01T08:26:52;35.17;;;19.95;;
21721;SDS011;11023;48.274;7.794;2023-03-01T08:29:18;35.72;;;21.55;;
21721;SDS011;11023;48.274;7.794;2023-03-01T08:31:44;35.55;;;20.92;;
21721;SDS011;11023;48.274;7.794;2023-03-01T08:34:11;33.60;;;21.08;;
21721;SDS011;11023;48.274;7.794;2023-03-01T08:36:39;33.42;;;21.27;;
21721;SDS011;11023;48.274;7.794;2023-03-01T08:39:10;34.80;;;20.88;;
21721;SDS011;11023;48.274;7.794;2023-03-01T08:41:37;34.92;;;21.30;;
21721;SDS011;11023;48.274;7.794;2023-03-01T08:44:03;33.25;;;20.05;;
21721;SDS011;11023;48.274;7.794;2023-03-01T08:46:33;34.05;;;20.13;;
21721;SDS011;11023;48.274;7.794;2023-03-01T08:49:05;35.50;;;21.75;;
21721;SDS011;11023;48.274;7.794;2023-03-01T08:51:32;34.60;;;21.65;;
21721;SDS011;11023;48.274;7.794;2023-03-01T08:54:02;34.88;;;21.92;;
21721;SDS011;11023;48.274;7.794;2023-03-01T08:56:32;33.88;;;21.15;;
21721;SDS011;11023;48.274;7.794;2023-03-01T08:58:58;34.83;;;20.95;;
21721;SDS011;11023;48.274;7.794;2023-03-01T09:01:25;34.05;;;20.70;;
21721;SDS011;11023;48.274;7.794;2023-03-01T09:03:51;32.45;;;20.25;;
21721;SDS011;11023;48.274;7.794;2023-03-01T09:06:17;33.53;;;20.70;;
21721;SDS011;11023;48.274;7.794;2023-03-01T09:08:47;34.75;;;20.85;;
21721;SDS011;11023;48.274;7.794;2023-03-01T09:11:15;33.45;;;20.50;;
21721;SDS011;11023;48.274;7.794;2023-03-01T09:13:44;33.95;;;21.27;;
21721;SDS011;11023;48.274;7.794;2023-03-01T09:16:12;34.53;;;21.25;;
21721;SDS011;11023;48.274;7.794;2023-03-01T09:18:39;34.35;;;21.55;;
21721;SDS011;11023;48.274;7.794;2023-03-01T09:21:06;38.22;;;21.95;;
21721;SDS011;11023;48.274;7.794;2023-03-01T09:23:37;34.97;;;21.67;;
21721;SDS011;11023;48.274;7.794;2023-03-01T09:26:08;36.05;;;22.45;;
21721;SDS011;11023;48.274;7.794;2023-03-01T09:28:36;36.42;;;22.23;;
21721;SDS011;11023;48.274;7.794;2023-03-01T09:31:02;33.55;;;21.08;;
21721;SDS011;11023;48.274;7.794;2023-03-01T09:33:29;33.63;;;22.08;;
21721;SDS011;11023;48.274;7.794;2023-03-01T09:36:03;33.78;;;21.27;;
21721;SDS011;11023;48.274;7.794;2023-03-01T09:38:32;34.20;;;21.55;;
21721;SDS011;11023;48.274;7.794;2023-03-01T09:40:58;33.10;;;21.42;;
21721;SDS011;11023;48.274;7.794;2023-03-01T09:46:09;35.20;;;21.63;;
21721;SDS011;11023;48.274;7.794;2023-03-01T09:48:49;36.45;;;21.52;;
21721;SDS011;11023;48.274;7.794;2023-03-01T09:51:34;34.92;;;22.38;;
21721;SDS011;11023;48.274;7.794;2023-03-01T09:54:02;33.92;;;22.05;;
21721;SDS011;11023;48.274;7.794;2023-03-01T09:56:32;33.35;;;22.02;;
21721;SDS011;11023;48.274;7.794;2023-03-01T10:01:50;36.58;;;22.65;;
21721;SDS011;11023;48.274;7.794;2023-03-01T10:04:41;35.45;;;21.98;;
21721;SDS011;11023;48.274;7.794;2023-03-01T10:10:21;35.90;;;23.15;;
21721;SDS011;11023;48.274;7.794;2023-03-01T10:13:02;36.58;;;22.67;;
21721;SDS011;11023;48.274;7.794;2023-03-01T10:15:38;34.92;;;22.95;;
21721;SDS011;11023;48.274;7.794;2023-03-01T10:18:13;40.95;;;23.42;;
21721;SDS011;11023;48.274;7.794;2023-03-01T10:23:24;35.83;;;22.70;;
21721;SDS011;11023;48.274;7.794;2023-03-01T10:31:29;35.25;;;22.55;;
21721;SDS011;11023;48.274;7.794;2023-03-01T10:34:17;32.70;;;20.35;;
21721;SDS011;11023;48.274;7.794;2023-03-01T10:36:49;35.72;;;22.02;;
21721;SDS011;11023;48.274;7.794;2023-03-01T10:39:21;35.60;;;20.80;;
21721;SDS011;11023;48.274;7.794;2023-03-01T10:41:54;35.20;;;21.40;;
21721;SDS011;11023;48.274;7.794;2023-03-01T10:49:51;32.03;;;19.65;;
21721;SDS011;11023;48.274;7.794;2023-03-01T10:52:29;31.00;;;19.27;;
21721;SDS011;11023;48.274;7.794;2023-03-01T10:58:05;31.52;;;20.42;;
21721;SDS011;11023;48.274;7.794;2023-03-01T11:00:31;28.38;;;19.95;;
21721;SDS011;11023;48.274;7.794;2023-03-01T11:05:23;30.55;;;19.70;;
21721;SDS011;11023;48.274;7.794;2023-03-01T11:07:54;31.40;;;20.42;;
21721;SDS011;11023;48.274;7.794;2023-03-01T11:10:25;28.42;;;19.00;;
21721;SDS011;11023;48.274;7.794;2023-03-01T11:12:53;29.77;;;20.02;;
21721;SDS011;11023;48.274;7.794;2023-03-01T11:15:30;29.92;;;19.25;;
21721;SDS011;11023;48.274;7.794;2023-03-01T11:17:56;30.90;;;19.60;;
21721;SDS011;11023;48.274;7.794;2023-03-01T11:20:27;29.65;;;20.13;;
21721;SDS011;11023;48.274;7.794;2023-03-01T11:23:04;29.70;;;19.58;;
21721;SDS011;11023;48.274;7.794;2023-03-01T11:25:47;28.75;;;19.48;;
21721;SDS011;11023;48.274;7.794;2023-03-01T11:28:19;30.15;;;19.42;;
21721;SDS011;11023;48.274;7.794;2023-03-01T11:33:44;29.42;;;19.65;;
21721;SDS011;11023;48.274;7.794;2023-03-01T11:39:03;32.15;;;19.52;;
21721;SDS011;11023;48.274;7.794;2023-03-01T11:41:38;31.08;;;20.35;;
21721;SDS011;11023;48.274;7.794;2023-03-01T12:04:36;28.95;;;19.60;;
21721;SDS011;11023;48.274;7.794;2023-03-01T12:06:59;29.60;;;20.10;;
21721;SDS011;11023;48.274;7.794;2023-03-01T12:20:12;29.52;;;20.05;;
21721;SDS011;11023;48.274;7.794;2023-03-01T12:25:48;29.58;;;20.60;;
21721;SDS011;11023;48.274;7.794;2023-03-01T12:34:08;31.55;;;21.30;;
21721;SDS011;11023;48.274;7.794;2023-03-01T12:42:25;30.75;;;20.48;;
21721;SDS011;11023;48.274;7.794;2023-03-01T12:47:44;31.77;;;21.48;;
21721;SDS011;11023;48.274;7.794;2023-03-01T12:50:37;33.35;;;21.48;;
21721;SDS011;11023;48.274;7.794;2023-03-01T12:55:39;31.58;;;21.85;;
21721;SDS011;11023;48.274;7.794;2023-03-01T12:58:11;32.10;;;21.50;;
21721;SDS011;11023;48.274;7.794;2023-03-01T13:06:58;30.40;;;19.85;;
21721;SDS011;11023;48.274;7.794;2023-03-01T13:09:39;33.92;;;22.23;;
21721;SDS011;11023;48.274;7.794;2023-03-01T13:15:24;31.60;;;21.88;;
21721;SDS011;11023;48.274;7.794;2023-03-01T13:17:50;31.33;;;21.80;;
21721;SDS011;11023;48.274;7.794;2023-03-01T13:20:21;32.25;;;21.65;;
21721;SDS011;11023;48.274;7.794;2023-03-01T13:31:00;34.38;;;23.10;;
21721;SDS011;11023;48.274;7.794;2023-03-01T13:35:59;30.15;;;21.48;;
21721;SDS011;11023;48.274;7.794;2023-03-01T13:49:31;32.67;;;22.33;;
21721;SDS011;11023;48.274;7.794;2023-03-01T13:54:59;31.80;;;21.48;;
21721;SDS011;11023;48.274;7.794;2023-03-01T13:57:32;32.38;;;21.75;;
21721;SDS011;11023;48.274;7.794;2023-03-01T14:00:00;29.48;;;22.45;;
21721;SDS011;11023;48.274;7.794;2023-03-01T14:02:27;31.40;;;21.83;;
21721;SDS011;11023;48.274;7.794;2023-03-01T14:04:56;33.90;;;22.50;;
21721;SDS011;11023;48.274;7.794;2023-03-01T14:07:24;30.77;;;21.85;;
21721;SDS011;11023;48.274;7.794;2023-03-01T14:09:54;30.23;;;21.60;;
21721;SDS011;11023;48.274;7.794;2023-03-01T14:17:43;33.67;;;22.33;;
21721;SDS011;11023;48.274;7.794;2023-03-01T14:20:28;33.30;;;21.95;;
21721;SDS011;11023;48.274;7.794;2023-03-01T14:23:12;33.75;;;23.05;;
21721;SDS011;11023;48.274;7.794;2023-03-01T14:25:46;33.80;;;22.05;;
21721;SDS011;11023;48.274;7.794;2023-03-01T14:28:19;33.90;;;23.15;;
21721;SDS011;11023;48.274;7.794;2023-03-01T14:30:48;33.05;;;23.02;;
21721;SDS011;11023;48.274;7.794;2023-03-01T14:33:32;32.20;;;21.77;;
21721;SDS011;11023;48.274;7.794;2023-03-01T14:36:03;32.83;;;21.95;;
21721;SDS011;11023;48.274;7.794;2023-03-01T14:38:34;33.03;;;23.58;;
21721;SDS011;11023;48.274;7.794;2023-03-01T14:41:16;35.17;;;23.15;;
21721;SDS011;11023;48.274;7.794;2023-03-01T14:43:45;32.05;;;22.35;;
21721;SDS011;11023;48.274;7.794;2023-03-01T14:46:19;32.88;;;23.13;;
21721;SDS011;11023;48.274;7.794;2023-03-01T14:48:51;32.20;;;23.02;;
21721;SDS011;11023;48.274;7.794;2023-03-01T14:51:21;32.83;;;22.73;;
21721;SDS011;11023;48.274;7.794;2023-03-01T14:53:47;33.75;;;22.67;;
21721;SDS011;11023;48.274;7.794;2023-03-01T14:56:15;32.53;;;23.10;;
21721;SDS011;11023;48.274;7.794;2023-03-01T14:58:44;35.20;;;22.70;;
21721;SDS011;11023;48.274;7.794;2023-03-01T15:01:15;31.25;;;21.98;;
21721;SDS011;11023;48.274;7.794;2023-03-01T15:03:46;31.45;;;21.70;;
21721;SDS011;11023;48.274;7.794;2023-03-01T15:06:14;35.83;;;23.20;;
21721;SDS011;11023;48.274;7.794;2023-03-01T15:08:48;31.40;;;21.85;;
21721;SDS011;11023;48.274;7.794;2023-03-01T15:11:24;32.85;;;22.67;;
21721;SDS011;11023;48.274;7.794;2023-03-01T15:13:54;35.25;;;21.23;;
21721;SDS011;11023;48.274;7.794;2023-03-01T15:16:24;31.92;;;21.55;;
21721;SDS011;11023;48.274;7.794;2023-03-01T15:19:01;31.40;;;21.70;;
21721;SDS011;11023;48.274;7.794;2023-03-01T15:21:30;32.35;;;22.52;;
21721;SDS011;11023;48.274;7.794;2023-03-01T15:24:05;38.40;;;23.58;;
21721;SDS011;11023;48.274;7.794;2023-03-01T15:27:12;34.10;;;22.83;;
21721;SDS011;11023;48.274;7.794;2023-03-01T15:29:32;31.60;;;21.88;;
21721;SDS011;11023;48.274;7.794;2023-03-01T15:34:58;32.00;;;21.70;;
21721;SDS011;11023;48.274;7.794;2023-03-01T15:37:43;33.78;;;22.42;;
21721;SDS011;11023;48.274;7.794;2023-03-01T15:40:28;31.45;;;21.52;;
21721;SDS011;11023;48.274;7.794;2023-03-01T15:45:25;32.60;;;21.67;;
21721;SDS011;11023;48.274;7.794;2023-03-01T15:47:56;31.52;;;22.00;;
21721;SDS011;11023;48.274;7.794;2023-03-01T15:52:54;30.08;;;21.48;;
21721;SDS011;11023;48.274;7.794;2023-03-01T15:55:21;31.27;;;21.35;;
21721;SDS011;11023;48.274;7.794;2023-03-01T15:57:48;31.48;;;21.23;;
21721;SDS011;11023;48.274;7.794;2023-03-01T16:00:14;34.58;;;21.90;;
21721;SDS011;11023;48.274;7.794;2023-03-01T16:02:42;31.65;;;20.98;;
21721;SDS011;11023;48.274;7.794;2023-03-01T16:05:17;30.50;;;20.70;;
21721;SDS011;11023;48.274;7.794;2023-03-01T16:07:45;32.33;;;22.10;;
21721;SDS011;11023;48.274;7.794;2023-03-01T16:10:11;32.42;;;21.23;;
21721;SDS011;11023;48.274;7.794;2023-03-01T16:12:37;34.90;;;22.35;;
21721;SDS011;11023;48.274;7.794;2023-03-01T16:24:51;30.67;;;20.98;;
21721;SDS011;11023;48.274;7.794;2023-03-01T16:27:17;34.35;;;22.73;;
21721;SDS011;11023;48.274;7.794;2023-03-01T16:29:43;34.45;;;21.50;;
21721;SDS011;11023;48.274;7.794;2023-03-01T16:32:09;31.38;;;21.40;;
21721;SDS011;11023;48.274;7.794;2023-03-01T16:34:34;33.25;;;22.63;;
21721;SDS011;11023;48.274;7.794;2023-03-01T16:37:00;32.78;;;22.25;;
21721;SDS011;11023;48.274;7.794;2023-03-01T16:39:26;33.10;;;22.08;;
21721;SDS011;11023;48.274;7.794;2023-03-01T16:41:51;32.83;;;21.55;;
21721;SDS011;11023;48.274;7.794;2023-03-01T16:44:17;31.80;;;21.33;;
21721;SDS011;11023;48.274;7.794;2023-03-01T16:46:42;34.28;;;22.30;;
21721;SDS011;11023;48.274;7.794;2023-03-01T16:49:08;32.70;;;21.88;;
21721;SDS011;11023;48.274;7.794;2023-03-01T16:51:34;31.30;;;21.90;;
21721;SDS011;11023;48.274;7.794;2023-03-01T16:54:01;32.72;;;21.55;;
21721;SDS011;11023;48.274;7.794;2023-03-01T16:56:29;31.25;;;21.27;;